createdAt,value
2022-12-07T00:00:39.880Z,31.3
2022-12-07T00:14:45.434Z,32.8
2022-12-07T00:28:54.679Z,33.4
2022-12-07T00:42:58.061Z,33.7
2022-12-07T00:57:01.960Z,33.9
2022-12-07T01:11:08.291Z,34.5
2022-12-07T01:25:17.910Z,34.5
2022-12-07T01:39:27.609Z,33.7
2022-12-07T01:53:35.327Z,33.4
2022-12-07T02:07:43.647Z,32.9
2022-12-07T02:21:55.975Z,32.9
2022-12-07T02:36:02.714Z,33.8
2022-12-07T02:50:07.957Z,34.4
2022-12-07T03:04:14.233Z,34.6
2022-12-07T03:18:20.746Z,34.9
2022-12-07T03:32:22.826Z,35.8
2022-12-07T03:46:30.373Z,35.9
2022-12-07T04:00:32.605Z,37
2022-12-07T04:14:38.440Z,37.5
2022-12-07T04:28:45.645Z,36.5
2022-12-07T04:42:54.988Z,37.5
2022-12-07T04:57:01.960Z,37.1
2022-12-07T05:11:12.841Z,36.8
2022-12-07T05:25:17.910Z,37.7
2022-12-07T05:39:20.938Z,37.3
2022-12-07T05:53:27.892Z,38
2022-12-07T06:07:31.443Z,38.6
2022-12-07T06:21:42.987Z,36.6
2022-12-07T06:35:48.464Z,37.7
2022-12-07T06:49:56.214Z,37.9
2022-12-07T07:04:02.686Z,38
2022-12-07T07:18:09.206Z,37.3
2022-12-07T07:32:15.537Z,37.4
2022-12-07T07:46:23.079Z,36.9
2022-12-07T08:00:26.885Z,35.7
2022-12-07T08:14:35.565Z,35.8
2022-12-07T08:28:41.095Z,34
2022-12-07T08:42:49.752Z,34
2022-12-07T08:57:01.002Z,34.3
2022-12-07T09:11:09.866Z,34.7
2022-12-07T09:25:18.330Z,35.2
2022-12-07T09:39:24.960Z,36
2022-12-07T09:53:33.307Z,36.8
2022-12-07T10:07:40.666Z,36.4
2022-12-07T10:21:47.913Z,36.7
2022-12-07T10:35:56.781Z,38.9
2022-12-07T10:50:04.156Z,39.1
2022-12-07T11:04:07.970Z,41.8
2022-12-07T11:18:16.668Z,43.6
2022-12-07T11:32:20.496Z,44
2022-12-07T11:46:24.714Z,45.7
2022-12-07T12:00:28.396Z,46
2022-12-07T12:14:39.807Z,48.8
2022-12-07T12:28:50.170Z,48.9
2022-12-07T12:42:52.628Z,49.8
2022-12-07T12:57:01.528Z,50.6
2022-12-07T13:11:09.931Z,51.7
2022-12-07T13:25:21.247Z,52.8
2022-12-07T13:39:30.184Z,53.9
2022-12-07T13:53:29.974Z,55
2022-12-07T14:07:36.496Z,56
2022-12-07T14:21:45.518Z,57
2022-12-07T14:35:54.856Z,57
2022-12-07T14:50:03.464Z,55.8
2022-12-07T15:04:07.870Z,57
2022-12-07T15:18:10.825Z,57.6
2022-12-07T15:32:20.017Z,58.2
2022-12-07T15:46:23.732Z,58.9
2022-12-07T16:00:30.358Z,59.2
2022-12-07T16:14:40.060Z,58.9
2022-12-07T16:28:48.505Z,60.5
2022-12-07T16:42:56.915Z,60.7
2022-12-07T16:57:03.714Z,61.5
2022-12-07T17:11:05.348Z,62
2022-12-07T17:25:09.874Z,62
2022-12-07T17:39:19.274Z,62.2
2022-12-07T17:53:26.094Z,63.3
2022-12-07T18:07:32.688Z,64.6
2022-12-07T18:21:40.023Z,65.6
2022-12-07T18:35:47.458Z,64.8
2022-12-07T18:49:54.309Z,66.6
2022-12-07T19:03:59.284Z,67.7
2022-12-07T19:18:04.909Z,68.2
2022-12-07T19:32:11.829Z,69.4
2022-12-07T19:46:22.056Z,68.7
2022-12-07T20:00:28.254Z,69.8
2022-12-07T20:14:36.419Z,70.4
2022-12-07T20:28:42.565Z,71.7
2022-12-07T20:43:05.746Z,71.6
2022-12-07T20:57:13.166Z,72.7
2022-12-07T21:11:18.958Z,73.7
2022-12-07T21:25:22.560Z,73.9
2022-12-07T21:39:31.489Z,74.5
2022-12-07T21:53:39.346Z,76.9
2022-12-07T22:07:47.039Z,76.3
2022-12-07T22:21:56.697Z,77.5
2022-12-07T22:36:03.621Z,78.6
2022-12-07T22:50:11.461Z,79.1
2022-12-07T23:04:13.398Z,80.5
2022-12-07T23:18:18.345Z,82.5
2022-12-07T23:32:29.183Z,83.9
2022-12-07T23:46:34.417Z,84.8
